Date,TemperatureHighF,TemperatureAvgF,TemperatureLowF,DewpointHighF,DewpointAvgF,DewpointLowF,HumidityHigh,HumidityAvg,HumidityLow,PressureMaxIn,PressureMinIn,WindSpeedMaxMPH,WindSpeedAvgMPH,GustSpeedMaxMPH,PrecipitationSumIn
2013-10-1,89.5,84.1,76.8,80.0,77.4,74.3,93,80,70,30.00,29.91,16,3,16,0.18
2013-10-2,88.3,82.3,76.4,80.1,77.4,74.6,96,86,73,30.00,29.92,10,2,12,0.45
2013-10-3,89.3,83.9,80.9,79.9,77.7,76.0,87,82,71,30.01,29.91,14,2,15,0.00
2013-10-4,89.9,84.2,81.2,78.9,76.6,74.1,87,78,68,30.02,29.95,10,2,10,0.02
2013-10-5,86.8,82.4,79.6,77.0,74.4,72.2,85,77,70,30.00,29.91,11,2,11,0.00
2013-10-6,88.0,82.5,77.5,76.2,73.8,70.9,85,75,64,29.96,29.87,6,1,7,0.00
2013-10-7,87.6,83.9,81.5,79.2,76.9,73.7,83,79,73,29.91,29.83,11,4,12,0.00
2013-10-8,87.3,83.2,79.5,79.3,77.0,74.2,88,82,74,29.94,29.85,11,3,12,0.00
2013-10-9,85.5,81.7,78.7,75.9,73.7,66.9,84,77,58,29.98,29.91,7,2,8,0.00
2013-10-10,88.2,81.9,78.3,77.5,75.8,74.2,91,82,68,30.00,29.91,13,3,14,0.08
2013-10-11,87.4,81.8,79.4,75.5,73.4,70.1,85,76,61,29.99,29.91,13,3,14,0.00
2013-10-12,87.3,81.6,78.2,72.2,70.0,67.1,76,68,52,30.01,29.93,11,2,11,0.00
2013-10-13,87.9,81.7,78.0,73.7,70.5,68.9,75,69,56,30.03,29.94,11,2,12,0.00
2013-10-14,86.5,81.0,77.5,73.2,70.2,67.7,81,70,56,29.99,29.88,14,4,14,0.00
2013-10-15,85.6,80.7,77.3,74.0,71.6,68.4,83,74,60,29.94,29.85,12,3,12,0.00
2013-10-16,87.0,81.0,75.6,75.4,72.9,63.9,89,77,47,29.94,29.87,10,2,10,0.18
2013-10-17,87.8,81.2,74.4,77.4,74.6,71.3,93,81,66,29.95,29.87,11,1,11,0.02
2013-10-18,88.0,82.4,78.8,79.7,75.8,72.8,86,81,72,29.96,29.88,12,2,12,0.00
2013-10-19,88.0,83.0,80.3,79.8,77.0,75.7,89,82,74,29.94,29.87,8,2,9,0.00
2013-10-20,87.8,83.5,80.2,80.2,77.8,76.3,90,83,76,29.95,29.86,8,2,8,0.00
2013-10-21,88.4,84.0,81.3,79.2,77.4,76.0,88,81,73,29.99,29.90,9,2,9,0.00
2013-10-22,88.4,83.9,81.4,79.2,77.5,76.0,87,81,73,29.95,29.84,9,2,10,0.00
2013-10-23,89.0,83.8,80.4,78.9,77.0,74.4,87,80,69,29.94,29.82,13,4,13,0.00
2013-10-24,83.8,79.7,77.6,75.7,73.1,70.0,91,80,72,30.05,29.90,22,7,22,0.03
2013-10-25,82.3,78.5,75.4,72.2,69.5,66.4,82,74,64,30.11,30.02,21,7,22,0.00
2013-10-26,82.8,77.9,74.5,72.2,69.5,66.7,86,76,64,30.11,30.02,16,6,17,0.00
2013-10-27,83.2,77.8,74.4,71.6,69.0,66.5,82,74,65,30.07,29.98,16,5,17,0.00
2013-10-28,83.5,78.9,75.8,73.3,70.9,67.6,86,77,65,30.10,30.01,15,4,15,0.00
2013-10-29,85.5,78.9,75.1,73.0,71.5,69.3,88,78,60,30.14,30.05,15,5,15,0.00
2013-10-30,85.7,80.0,76.8,73.5,70.1,67.9,86,72,59,30.13,30.03,16,4,16,0.00
2013-10-31,86.0,81.3,78.6,74.7,72.5,70.0,81,75,66,30.08,29.96,11,2,11,0.00